Time,TemperatureF,DewpointF,PressureIn,WindDirection,WindDirectionDegrees,WindSpeedMPH,WindSpeedGustMPH,Humidity,HourlyPrecipIn,Conditions,Clouds,dailyrainin,SoftwareType,DateUTC
2013-10-15 00:13:00,38.0,37.0,30.24,ESE,113,0.0,1.0,95,0.00,,,0.00,,2013-10-15 05:13:00,
2013-10-15 00:22:00,37.0,36.0,30.23,ESE,115,0.0,0.0,96,0.00,,,0.00,,2013-10-15 05:22:00,
2013-10-15 00:42:00,37.0,36.0,30.22,ESE,113,0.0,0.0,96,0.00,,,0.00,,2013-10-15 05:42:00,
2013-10-15 00:52:00,37.0,36.0,30.22,ESE,115,0.0,0.0,96,0.00,,,0.00,,2013-10-15 05:52:00,
2013-10-15 01:12:00,37.0,36.0,30.20,ESE,115,0.0,0.0,97,0.00,,,0.00,,2013-10-15 06:12:00,
2013-10-15 01:22:00,39.0,38.0,30.20,SE,127,0.0,0.0,97,0.00,,,0.00,,2013-10-15 06:22:00,
2013-10-15 01:43:00,39.0,38.0,30.20,East,82,0.0,0.0,96,0.00,,,0.00,,2013-10-15 06:43:00,
2013-10-15 01:52:00,39.0,38.0,30.20,East,83,0.0,1.0,95,0.00,,,0.00,,2013-10-15 06:52:00,
2013-10-15 02:12:00,39.0,38.0,30.18,East,95,0.0,0.0,95,0.00,,,0.00,,2013-10-15 07:12:00,
2013-10-15 02:22:00,39.0,38.0,30.18,East,96,0.0,1.0,96,0.00,,,0.00,,2013-10-15 07:22:00,
2013-10-15 02:42:00,39.0,37.0,30.16,ENE,61,0.0,1.0,94,0.00,,,0.00,,2013-10-15 07:42:00,
2013-10-15 02:52:00,40.0,38.0,30.16,East,99,0.0,1.0,94,0.00,,,0.00,,2013-10-15 07:52:00,
2013-10-15 03:12:00,40.0,38.0,30.16,East,101,0.0,0.0,94,0.00,,,0.00,,2013-10-15 08:12:00,
2013-10-15 03:22:00,39.0,37.0,30.14,East,101,0.0,0.0,94,0.00,,,0.00,,2013-10-15 08:22:00,
2013-10-15 03:42:00,40.0,38.0,30.14,SE,129,0.0,1.0,94,0.00,,,0.00,,2013-10-15 08:42:00,
2013-10-15 03:52:00,40.0,38.0,30.12,East,91,0.0,1.0,94,0.00,,,0.00,,2013-10-15 08:52:00,
2013-10-15 04:12:00,40.0,38.0,30.12,East,84,0.0,2.0,94,0.00,,,0.00,,2013-10-15 09:12:00,
2013-10-15 04:22:00,40.0,38.0,30.12,ESE,113,0.0,1.0,94,0.00,,,0.00,,2013-10-15 09:22:00,
2013-10-15 04:43:00,40.0,39.0,30.12,ESE,110,0.0,0.0,95,0.00,,,0.00,,2013-10-15 09:43:00,
2013-10-15 04:53:00,40.0,39.0,30.11,ESE,115,0.0,1.0,95,0.00,,,0.00,,2013-10-15 09:53:00,
2013-10-15 05:13:00,40.0,39.0,30.11,ESE,118,0.0,1.0,95,0.00,,,0.00,,2013-10-15 10:13:00,
2013-10-15 05:23:00,41.0,40.0,30.12,ESE,118,0.0,0.0,95,0.00,,,0.00,,2013-10-15 10:23:00,
2013-10-15 05:42:00,40.0,39.0,30.11,ESE,117,0.0,0.0,95,0.00,,,0.00,,2013-10-15 10:42:00,
2013-10-15 05:53:00,40.0,39.0,30.11,ESE,118,0.0,0.0,96,0.00,,,0.00,,2013-10-15 10:53:00,
2013-10-15 06:11:00,41.0,40.0,30.10,ESE,117,0.0,0.0,96,0.00,,,0.00,,2013-10-15 11:11:00,
2013-10-15 06:22:00,41.0,40.0,30.10,ESE,117,0.0,0.0,96,0.00,,,0.00,,2013-10-15 11:22:00,
2013-10-15 06:42:00,41.0,40.0,30.09,ENE,65,0.0,2.0,96,0.00,,,0.00,,2013-10-15 11:42:00,
2013-10-15 06:52:00,42.0,41.0,30.06,ESE,110,0.0,3.0,96,0.00,,,0.00,,2013-10-15 11:52:00,
2013-10-15 07:12:00,42.0,41.0,30.05,East,89,0.0,2.0,96,0.00,,,0.00,,2013-10-15 12:12:00,
2013-10-15 07:22:00,43.0,42.0,30.04,ESE,115,0.0,3.0,96,0.00,,,0.00,,2013-10-15 12:22:00,
2013-10-15 07:42:00,43.0,42.0,30.04,ESE,117,0.0,1.0,96,0.00,,,0.00,,2013-10-15 12:42:00,
2013-10-15 07:52:00,43.0,42.0,30.03,ESE,103,0.0,3.0,96,0.00,,,0.00,,2013-10-15 12:52:00,
2013-10-15 08:11:00,44.0,43.0,30.02,ESE,104,0.0,1.0,96,0.00,,,0.00,,2013-10-15 13:11:00,
2013-10-15 08:21:00,44.0,43.0,30.01,ESE,104,0.0,1.0,96,0.00,,,0.00,,2013-10-15 13:21:00,
2013-10-15 08:42:00,44.0,43.0,30.01,East,84,0.0,2.0,96,0.00,,,0.00,,2013-10-15 13:42:00,
2013-10-15 08:52:00,45.0,44.0,30.00,ENE,75,0.0,3.0,96,0.00,,,0.00,,2013-10-15 13:52:00,
2013-10-15 09:12:00,46.0,45.0,29.99,ENE,69,1.0,3.0,96,0.00,,,0.00,,2013-10-15 14:12:00,
2013-10-15 09:22:00,46.0,45.0,29.97,East,89,1.0,5.0,96,0.00,,,0.00,,2013-10-15 14:22:00,
2013-10-15 09:42:00,47.0,46.0,29.96,ESE,107,0.0,5.0,97,0.01,,,0.01,,2013-10-15 14:42:00,
2013-10-15 09:52:00,47.0,46.0,29.96,East,94,0.0,3.0,97,0.01,,,0.01,,2013-10-15 14:52:00,
2013-10-15 10:11:00,47.0,46.0,29.95,SE,143,0.0,3.0,97,0.01,,,0.01,,2013-10-15 15:11:00,
2013-10-15 10:22:00,48.0,47.0,29.94,ESE,108,0.0,2.0,97,0.01,,,0.01,,2013-10-15 15:22:00,
2013-10-15 10:44:00,48.0,47.0,29.94,ENE,74,0.0,3.0,97,0.02,,,0.03,,2013-10-15 15:44:00,
2013-10-15 10:53:00,48.0,47.0,29.92,East,91,0.0,3.0,97,0.03,,,0.04,,2013-10-15 15:53:00,
2013-10-15 11:13:00,48.0,47.0,29.91,SE,135,1.0,6.0,97,0.06,,,0.07,,2013-10-15 16:13:00,
2013-10-15 11:23:00,48.0,47.0,29.91,East,85,0.0,2.0,97,0.08,,,0.10,,2013-10-15 16:23:00,
2013-10-15 11:42:00,49.0,48.0,29.91,NE,56,0.0,3.0,97,0.11,,,0.14,,2013-10-15 16:42:00,
2013-10-15 11:53:00,49.0,48.0,29.90,East,84,0.0,1.0,98,0.12,,,0.17,,2013-10-15 16:53:00,
2013-10-15 12:12:00,49.0,48.0,29.90,ENE,65,0.0,3.0,97,0.13,,,0.20,,2013-10-15 17:12:00,
2013-10-15 12:22:00,49.0,48.0,29.88,SE,138,0.0,4.0,98,0.16,,,0.26,,2013-10-15 17:22:00,
2013-10-15 12:42:00,49.0,48.0,29.85,NE,45,0.0,4.0,98,0.14,,,0.28,,2013-10-15 17:42:00,
2013-10-15 12:53:00,50.0,49.0,29.84,ESE,102,0.0,5.0,98,0.14,,,0.31,,2013-10-15 17:53:00,
2013-10-15 13:12:00,50.0,49.0,29.83,ENE,77,1.0,5.0,98,0.12,,,0.33,,2013-10-15 18:12:00,
2013-10-15 13:22:00,50.0,49.0,29.83,North,349,0.0,6.0,97,0.08,,,0.34,,2013-10-15 18:22:00,
2013-10-15 13:42:00,50.0,49.0,29.82,ESE,113,1.0,8.0,96,0.05,,,0.34,,2013-10-15 18:42:00,
2013-10-15 13:52:00,50.0,49.0,29.81,ESE,121,0.0,4.0,96,0.05,,,0.36,,2013-10-15 18:52:00,
2013-10-15 14:12:00,50.0,49.0,29.80,ESE,123,1.0,4.0,96,0.03,,,0.36,,2013-10-15 19:12:00,
2013-10-15 14:22:00,51.0,50.0,29.79,East,98,0.0,4.0,97,0.03,,,0.37,,2013-10-15 19:22:00,
2013-10-15 14:42:00,50.0,49.0,29.78,ENE,75,1.0,4.0,97,0.03,,,0.37,,2013-10-15 19:42:00,
2013-10-15 14:52:00,50.0,49.0,29.78,East,84,0.0,3.0,97,0.01,,,0.37,,2013-10-15 19:52:00,
2013-10-15 15:12:00,50.0,49.0,29.77,ESE,105,1.0,3.0,97,0.01,,,0.37,,2013-10-15 20:12:00,
2013-10-15 15:22:00,51.0,50.0,29.76,ESE,110,0.0,3.0,98,0.00,,,0.37,,2013-10-15 20:22:00,
2013-10-15 15:42:00,50.0,49.0,29.75,East,91,1.0,4.0,97,0.00,,,0.37,,2013-10-15 20:42:00,
2013-10-15 15:52:00,51.0,50.0,29.75,ENE,71,0.0,6.0,98,0.00,,,0.37,,2013-10-15 20:52:00,
2013-10-15 16:13:00,51.0,50.0,29.74,ENE,77,1.0,5.0,98,0.00,,,0.37,,2013-10-15 21:13:00,
2013-10-15 16:22:00,51.0,50.0,29.73,East,84,0.0,3.0,98,0.01,,,0.38,,2013-10-15 21:22:00,
2013-10-15 16:44:00,51.0,50.0,29.73,ESE,105,0.0,3.0,98,0.01,,,0.38,,2013-10-15 21:44:00,
2013-10-15 16:54:00,51.0,50.0,29.73,NE,56,0.0,4.0,98,0.01,,,0.38,,2013-10-15 21:54:00,
2013-10-15 17:13:00,51.0,50.0,29.72,NNE,23,0.0,2.0,98,0.01,,,0.38,,2013-10-15 22:13:00,
2013-10-15 17:23:00,51.0,50.0,29.72,SSW,212,0.0,3.0,98,0.00,,,0.38,,2013-10-15 22:23:00,
2013-10-15 17:43:00,51.0,50.0,29.72,East,98,0.0,2.0,98,0.00,,,0.38,,2013-10-15 22:43:00,
2013-10-15 17:53:00,51.0,50.0,29.72,NNW,333,0.0,2.0,98,0.01,,,0.39,,2013-10-15 22:53:00,
2013-10-15 18:12:00,51.0,50.0,29.72,East,84,0.0,3.0,98,0.01,,,0.39,,2013-10-15 23:12:00,
2013-10-15 18:22:00,51.0,50.0,29.71,East,88,0.0,1.0,98,0.01,,,0.39,,2013-10-15 23:22:00,
2013-10-15 18:43:00,51.0,50.0,29.71,East,90,0.0,0.0,98,0.02,,,0.40,,2013-10-15 23:43:00,
2013-10-15 18:52:00,51.0,50.0,29.71,East,89,0.0,0.0,98,0.01,,,0.40,,2013-10-15 23:52:00,
2013-10-15 19:12:00,51.0,50.0,29.71,East,88,0.0,0.0,98,0.01,,,0.40,,2013-10-16 00:12:00,
2013-10-15 19:22:00,51.0,50.0,29.70,East,88,0.0,1.0,98,0.01,,,0.40,,2013-10-16 00:22:00,
2013-10-15 19:42:00,51.0,50.0,29.70,East,87,0.0,0.0,98,0.00,,,0.40,,2013-10-16 00:42:00,
2013-10-15 19:52:00,51.0,50.0,29.70,East,87,0.0,0.0,98,0.01,,,0.41,,2013-10-16 00:52:00,
2013-10-15 20:11:00,51.0,50.0,29.69,East,88,0.0,0.0,98,0.01,,,0.41,,2013-10-16 01:11:00,
2013-10-15 20:22:00,51.0,51.0,29.69,East,84,0.0,1.0,99,0.01,,,0.41,,2013-10-16 01:22:00,
2013-10-15 20:42:00,51.0,51.0,29.69,East,84,0.0,0.0,99,0.01,,,0.41,,2013-10-16 01:42:00,
2013-10-15 20:52:00,51.0,51.0,29.69,East,84,0.0,0.0,99,0.01,,,0.41,,2013-10-16 01:52:00,
2013-10-15 21:12:00,51.0,51.0,29.68,NE,39,0.0,0.0,99,0.00,,,0.41,,2013-10-16 02:12:00,
2013-10-15 21:22:00,51.0,51.0,29.68,NE,43,0.0,0.0,99,0.00,,,0.41,,2013-10-16 02:22:00,
2013-10-15 21:42:00,51.0,51.0,29.68,NE,43,0.0,0.0,99,0.00,,,0.41,,2013-10-16 02:42:00,
2013-10-15 21:52:00,51.0,51.0,29.68,NE,42,0.0,0.0,99,0.00,,,0.41,,2013-10-16 02:52:00,
2013-10-15 22:11:00,51.0,51.0,29.67,NE,43,0.0,0.0,99,0.00,,,0.41,,2013-10-16 03:11:00,
2013-10-15 22:22:00,51.0,51.0,29.67,NE,43,0.0,0.0,99,0.00,,,0.41,,2013-10-16 03:22:00,
2013-10-15 22:45:00,51.0,51.0,29.67,NE,43,0.0,0.0,99,0.00,,,0.41,,2013-10-16 03:45:00,
2013-10-15 22:55:00,51.0,51.0,29.67,NE,43,0.0,0.0,99,0.00,,,0.41,,2013-10-16 03:55:00,
2013-10-15 23:14:00,51.0,51.0,29.67,NE,43,0.0,0.0,99,0.00,,,0.41,,2013-10-16 04:14:00,
2013-10-15 23:24:00,51.0,51.0,29.67,NE,43,0.0,0.0,99,0.00,,,0.41,,2013-10-16 04:24:00,
2013-10-15 23:43:00,51.0,51.0,29.66,NE,43,0.0,0.0,99,0.00,,,0.41,,2013-10-16 04:43:00,
2013-10-15 23:54:00,51.0,51.0,29.66,NE,43,0.0,0.0,99,0.00,,,0.41,,2013-10-16 04:54:00,